Time;durP1;ratioP1;P1;durP2;ratioP2;P2;SDS_P1;SDS_P2;PMS_P1;PMS_P2;Temp;Humidity;BMP_temperature;BMP_pressure;BME280_temperature;BME280_humidity;BME280_pressure;Samples;Min_cycle;Max_cycle;Signal;HPM_P1;HPM_P2
2021/12/22 00:01:39;;;;;;;24.60;15.30;;;-0.90;99.90;;;;;;5079001;28;20060;-59
2021/12/22 00:04:05;;;;;;;29.90;16.80;;;-0.90;99.90;;;;;;5080545;28;20056;-59
2021/12/22 00:06:33;;;;;;;23.20;14.63;;;-1.00;99.90;;;;;;5080659;28;20052;-58
2021/12/22 00:09:00;;;;;;;29.38;15.27;;;-0.90;99.90;;;;;;5078745;28;20516;-60
2021/12/22 00:11:26;;;;;;;26.70;15.90;;;-1.00;99.90;;;;;;5078740;28;20049;-59
2021/12/22 00:13:53;;;;;;;27.52;16.05;;;-1.00;99.90;;;;;;5079870;28;20121;-58
2021/12/22 00:16:19;;;;;;;30.08;15.82;;;-1.00;99.90;;;;;;5078568;28;20052;-59
2021/12/22 00:18:44;;;;;;;26.80;16.58;;;-1.00;99.90;;;;;;5080249;28;20052;-59
2021/12/22 00:21:10;;;;;;;26.25;16.58;;;-1.00;99.90;;;;;;5080228;28;20040;-59
2021/12/22 00:23:37;;;;;;;28.88;16.13;;;-1.00;99.90;;;;;;5080284;28;20041;-59
2021/12/22 00:26:04;;;;;;;26.27;14.90;;;-1.00;99.90;;;;;;5079991;28;20087;-58
2021/12/22 00:28:32;;;;;;;23.25;15.23;;;-1.10;99.90;;;;;;5078742;28;20040;-59
2021/12/22 00:30:58;;;;;;;27.90;16.80;;;-1.00;99.90;;;;;;5079762;28;20045;-60
2021/12/22 00:33:24;;;;;;;30.73;16.58;;;-1.10;99.90;;;;;;5078375;28;20462;-58
2021/12/22 00:35:49;;;;;;;30.95;17.50;;;-1.10;99.90;;;;;;5062228;28;20052;-59
2021/12/22 00:38:20;;;;;;;24.90;15.93;;;-1.00;99.90;;;;;;5078685;28;20083;-59
2021/12/22 00:40:47;;;;;;;22.45;15.50;;;-1.00;99.90;;;;;;5080078;28;20189;-59
2021/12/22 00:43:14;;;;;;;25.77;15.52;;;-1.10;99.90;;;;;;5078104;28;20044;-59
2021/12/22 00:45:40;;;;;;;28.58;16.00;;;-1.10;99.90;;;;;;5079553;28;20052;-59
2021/12/22 00:48:08;;;;;;;26.13;15.32;;;-1.00;99.90;;;;;;5078114;28;20050;-59
2021/12/22 00:50:35;;;;;;;28.30;15.77;;;-1.10;99.90;;;;;;5086249;28;20040;-59
2021/12/22 00:53:01;;;;;;;26.67;15.07;;;-1.10;99.90;;;;;;5099726;28;20055;-59
2021/12/22 00:55:28;;;;;;;24.90;16.50;;;-1.00;99.90;;;;;;5086176;28;20048;-60
2021/12/22 00:57:53;;;;;;;26.35;15.05;;;-1.00;99.90;;;;;;5079255;28;20591;-59
2021/12/22 01:00:22;;;;;;;27.00;14.93;;;-1.10;99.90;;;;;;5079416;28;20055;-59
2021/12/22 01:02:48;;;;;;;23.98;15.02;;;-1.10;99.90;;;;;;5061265;28;20048;-59
2021/12/22 01:05:16;;;;;;;25.45;15.82;;;-1.00;99.90;;;;;;5077668;28;20076;-59
2021/12/22 01:07:43;;;;;;;26.08;14.93;;;-1.10;99.90;;;;;;5078822;28;20563;-59
2021/12/22 01:10:10;;;;;;;27.60;14.45;;;-1.10;99.90;;;;;;5078706;28;20052;-59
2021/12/22 01:12:36;;;;;;;24.02;13.50;;;-1.10;99.90;;;;;;5079240;28;20048;-59
2021/12/22 01:15:04;;;;;;;24.92;14.88;;;-1.20;99.90;;;;;;5079068;28;20657;-59
2021/12/22 01:17:37;;;;;;;24.77;13.98;;;-1.30;99.90;;;;;;5079173;28;20052;-59
2021/12/22 01:20:10;;;;;;;27.13;15.02;;;-1.30;99.90;;;;;;5079135;28;20052;-58
2021/12/22 01:25:11;;;;;;;20.90;14.02;;;-1.20;99.90;;;;;;5079029;28;20537;-59
2021/12/22 01:27:41;;;;;;;23.45;14.75;;;-1.20;99.90;;;;;;5078752;28;20186;-59
2021/12/22 01:30:13;;;;;;;25.95;15.80;;;-1.20;99.90;;;;;;5079146;28;20052;-57
2021/12/22 01:32:39;;;;;;;23.38;13.57;;;-1.20;99.90;;;;;;5077450;28;20048;-59
2021/12/22 01:35:08;;;;;;;23.38;14.05;;;-1.30;99.90;;;;;;5078742;28;20500;-64
2021/12/22 01:37:34;;;;;;;29.42;15.55;;;-1.20;99.90;;;;;;5078493;28;20569;-59
2021/12/22 01:40:02;;;;;;;22.48;14.20;;;-1.20;99.90;;;;;;5077447;28;20095;-59
2021/12/22 01:42:29;;;;;;;22.52;14.10;;;-1.30;99.90;;;;;;5077835;28;20040;-59
2021/12/22 01:50:48;;;;;;;24.73;14.07;;;-1.50;99.90;;;;;;5083237;28;20052;-58
2021/12/22 01:53:20;;;;;;;24.27;14.75;;;-1.40;99.90;;;;;;5091220;28;20059;-59
2021/12/22 01:56:26;;;;;;;22.83;14.45;;;-1.40;99.90;;;;;;5082422;28;20061;-59
2021/12/22 01:58:54;;;;;;;23.83;14.60;;;-1.40;99.90;;;;;;5078233;28;20116;-59
2021/12/22 02:01:21;;;;;;;23.73;14.15;;;-1.50;99.90;;;;;;5078138;28;20087;-59
2021/12/22 02:03:49;;;;;;;22.27;13.85;;;-1.60;99.90;;;;;;5060485;28;20043;-58
2021/12/22 02:06:16;;;;;;;30.60;16.10;;;-1.60;99.90;;;;;;5078211;28;20056;-58
2021/12/22 02:08:44;;;;;;;26.15;16.05;;;-1.40;99.90;;;;;;5078154;28;20086;-59
2021/12/22 02:11:12;;;;;;;24.00;14.65;;;-1.50;99.90;;;;;;5078292;28;20057;-58
2021/12/22 02:13:42;;;;;;;22.35;15.07;;;-1.40;99.90;;;;;;5077533;28;20055;-57
2021/12/22 02:16:12;;;;;;;27.10;15.02;;;-1.50;99.90;;;;;;5077843;28;20056;-58
2021/12/22 02:18:50;;;;;;;29.77;14.77;;;-1.50;99.90;;;;;;5076390;28;20048;-58
2021/12/22 02:21:17;;;;;;;22.48;13.68;;;-1.60;99.90;;;;;;5077300;28;20116;-58
2021/12/22 02:23:43;;;;;;;27.40;16.17;;;-1.60;99.90;;;;;;5076604;28;20056;-58
2021/12/22 02:26:21;;;;;;;29.92;15.20;;;-1.60;99.90;;;;;;5077506;28;20059;-58
2021/12/22 02:28:56;;;;;;;23.40;14.50;;;-1.50;99.90;;;;;;5077549;28;20052;-58
2021/12/22 02:31:22;;;;;;;27.05;15.10;;;-1.60;99.90;;;;;;5077350;28;20052;-58
2021/12/22 02:33:50;;;;;;;26.20;14.93;;;-1.60;99.90;;;;;;5077689;28;20214;-58
2021/12/22 02:38:52;;;;;;;22.30;13.85;;;-1.60;99.90;;;;;;5078044;28;20040;-59
2021/12/22 02:41:21;;;;;;;23.27;14.32;;;-1.60;99.90;;;;;;5077964;28;20456;-57
2021/12/22 02:43:50;;;;;;;24.00;14.77;;;-1.60;99.90;;;;;;5059567;28;20060;-59
2021/12/22 02:46:20;;;;;;;24.73;13.70;;;-1.60;99.90;;;;;;5076340;28;20505;-58
2021/12/22 02:48:46;;;;;;;21.98;13.48;;;-1.60;99.90;;;;;;5077687;28;20068;-58
2021/12/22 02:51:13;;;;;;;23.20;14.10;;;-1.60;99.90;;;;;;5090062;28;20072;-59
2021/12/22 03:02:10;;;;;;;26.00;14.38;;;-1.60;99.90;;;;;;5077577;28;20041;-59
2021/12/22 03:04:45;;;;;;;23.08;13.52;;;-1.60;99.90;;;;;;5076345;28;20045;-59
2021/12/22 03:07:15;;;;;;;21.90;14.00;;;-1.60;99.90;;;;;;5077307;28;20122;-58
2021/12/22 03:09:41;;;;;;;23.08;14.32;;;-1.60;99.90;;;;;;5076669;28;20061;-58
2021/12/22 03:12:11;;;;;;;24.75;15.15;;;-1.60;99.90;;;;;;5077363;28;20397;-58
2021/12/22 03:14:37;;;;;;;21.92;14.52;;;-1.70;99.90;;;;;;5077112;28;20765;-58
2021/12/22 03:17:03;;;;;;;19.92;12.82;;;-1.60;99.90;;;;;;5076018;28;20040;-58
2021/12/22 03:19:32;;;;;;;21.23;13.43;;;-1.70;99.90;;;;;;5077486;28;20046;-57
2021/12/22 03:22:03;;;;;;;19.70;13.20;;;-1.70;99.90;;;;;;5075779;28;20052;-58
2021/12/22 03:24:32;;;;;;;21.30;13.32;;;-1.70;99.90;;;;;;5077258;28;20191;-58
2021/12/22 03:27:02;;;;;;;24.98;14.55;;;-1.80;99.90;;;;;;5076972;28;20432;-59
2021/12/22 03:29:29;;;;;;;20.88;14.15;;;-1.70;99.90;;;;;;5077300;28;20074;-58
2021/12/22 03:31:55;;;;;;;23.70;13.88;;;-1.80;99.90;;;;;;5077257;28;20063;-58
2021/12/22 03:34:21;;;;;;;23.70;13.23;;;-1.70;99.90;;;;;;5075544;28;20053;-58
2021/12/22 03:36:47;;;;;;;21.80;13.82;;;-1.70;99.90;;;;;;5077152;28;20560;-58
2021/12/22 03:39:15;;;;;;;23.20;13.85;;;-1.80;99.90;;;;;;5076773;28;20105;-59
2021/12/22 03:41:42;;;;;;;22.10;13.20;;;-1.70;99.90;;;;;;5075661;28;20041;-59
2021/12/22 03:44:09;;;;;;;23.27;14.95;;;-1.70;99.90;;;;;;5076568;28;20344;-58
2021/12/22 03:46:36;;;;;;;23.15;14.18;;;-1.80;99.90;;;;;;5076792;28;20048;-58
2021/12/22 03:49:04;;;;;;;24.30;13.85;;;-1.80;99.90;;;;;;5076716;28;20044;-59
2021/12/22 03:51:30;;;;;;;20.70;13.55;;;-1.80;99.90;;;;;;5091522;28;20059;-59
2021/12/22 03:53:56;;;;;;;24.15;13.27;;;-1.80;99.90;;;;;;5095839;28;20048;-58
2021/12/22 03:56:22;;;;;;;23.45;14.27;;;-1.90;99.90;;;;;;5076470;28;20053;-58
2021/12/22 03:58:48;;;;;;;21.85;12.88;;;-1.80;99.90;;;;;;5076221;28;20048;-58
2021/12/22 04:01:14;;;;;;;23.60;13.65;;;-1.90;99.90;;;;;;5076191;28;20041;-59
2021/12/22 04:03:43;;;;;;;20.40;12.95;;;-1.90;99.90;;;;;;5076824;28;20036;-57
2021/12/22 04:06:09;;;;;;;21.73;12.20;;;-1.80;99.90;;;;;;5076687;28;20401;-58
2021/12/22 04:08:35;;;;;;;23.48;13.90;;;-1.80;99.90;;;;;;5076887;28;20063;-58
2021/12/22 04:11:01;;;;;;;21.13;13.15;;;-1.90;99.90;;;;;;5076766;28;20055;-58
2021/12/22 04:13:27;;;;;;;21.23;13.55;;;-1.80;99.90;;;;;;5076471;28;20052;-59
2021/12/22 04:15:52;;;;;;;24.08;14.20;;;-1.90;99.90;;;;;;5076517;28;20052;-58
2021/12/22 04:18:19;;;;;;;25.67;13.63;;;-2.00;99.90;;;;;;5076299;28;20040;-58
2021/12/22 04:20:45;;;;;;;23.63;13.25;;;-2.00;99.90;;;;;;5076476;28;20447;-57
2021/12/22 04:23:11;;;;;;;25.75;12.93;;;-2.00;99.90;;;;;;5076560;28;20131;-58
2021/12/22 04:25:38;;;;;;;22.63;12.95;;;-2.00;99.90;;;;;;5058840;28;20041;-58
2021/12/22 04:28:09;;;;;;;22.77;12.85;;;-1.90;99.90;;;;;;5076708;28;20051;-58
2021/12/22 04:30:38;;;;;;;24.33;14.50;;;-2.00;99.90;;;;;;5075002;28;20083;-59
2021/12/22 04:33:05;;;;;;;22.33;12.27;;;-2.00;99.90;;;;;;5076277;28;20053;-58
2021/12/22 04:35:31;;;;;;;22.90;13.55;;;-2.00;99.90;;;;;;5076498;28;20076;-60
2021/12/22 04:37:57;;;;;;;25.17;13.18;;;-2.10;99.90;;;;;;5076050;28;20051;-60
2021/12/22 04:40:24;;;;;;;24.23;13.43;;;-2.00;99.90;;;;;;5076278;28;20100;-59
2021/12/22 04:42:50;;;;;;;24.40;12.55;;;-2.00;99.90;;;;;;5075000;28;20063;-59
2021/12/22 04:45:16;;;;;;;23.40;12.77;;;-2.00;99.90;;;;;;5076794;28;20506;-59
2021/12/22 04:47:43;;;;;;;24.35;12.63;;;-2.10;99.90;;;;;;5079900;28;20436;-59
2021/12/22 04:50:15;;;;;;;22.23;12.93;;;-2.10;99.90;;;;;;5083006;28;20241;-62
2021/12/22 04:55:40;;;;;;;23.83;14.15;;;-2.10;99.90;;;;;;5049814;28;20032;-59
2021/12/22 04:58:06;;;;;;;22.17;12.88;;;-2.10;99.90;;;;;;5079939;28;20041;-59
2021/12/22 05:00:36;;;;;;;22.77;12.63;;;-2.00;99.90;;;;;;5079752;28;20044;-59
2021/12/22 05:03:02;;;;;;;20.98;13.10;;;-2.20;99.90;;;;;;5079366;28;20078;-59
2021/12/22 05:05:29;;;;;;;22.83;13.55;;;-2.20;99.90;;;;;;5079177;28;20044;-58
2021/12/22 05:07:55;;;;;;;24.23;12.93;;;-2.20;99.90;;;;;;5078015;28;20049;-58
2021/12/22 05:10:22;;;;;;;24.40;13.98;;;-2.20;99.90;;;;;;5079205;28;20404;-59
2021/12/22 05:12:48;;;;;;;27.80;13.57;;;-2.20;99.90;;;;;;5079327;28;20088;-59
2021/12/22 05:15:20;;;;;;;22.40;12.30;;;-2.20;99.90;;;;;;5079310;28;20109;-59
2021/12/22 05:20:14;;;;;;;24.75;13.85;;;-2.20;99.90;;;;;;5078964;28;20057;-58
2021/12/22 05:22:41;;;;;;;24.35;13.63;;;-2.20;99.90;;;;;;5077578;28;20735;-58
2021/12/22 05:25:09;;;;;;;21.70;12.73;;;-2.20;99.90;;;;;;5079309;28;20048;-58
2021/12/22 05:27:36;;;;;;;18.95;12.52;;;-2.20;99.90;;;;;;5078942;28;20510;-58
2021/12/22 05:30:05;;;;;;;21.05;12.52;;;-2.30;99.90;;;;;;5079236;28;20048;-58
2021/12/22 05:32:32;;;;;;;20.02;12.45;;;-2.20;99.90;;;;;;5077729;28;20040;-58
2021/12/22 05:34:59;;;;;;;29.25;13.13;;;-2.20;99.90;;;;;;5078709;28;20049;-59
2021/12/22 05:37:25;;;;;;;23.90;13.25;;;-2.10;99.90;;;;;;5077366;28;20084;-58
2021/12/22 05:39:52;;;;;;;23.63;13.05;;;-2.20;99.90;;;;;;5078706;28;20203;-58
2021/12/22 05:42:19;;;;;;;26.75;13.70;;;-2.20;99.90;;;;;;5077496;28;20157;-57
2021/12/22 05:44:45;;;;;;;26.88;14.82;;;-2.20;99.90;;;;;;5078441;28;20102;-58
2021/12/22 05:47:11;;;;;;;21.27;13.57;;;-2.20;99.90;;;;;;5077369;28;20076;-59
2021/12/22 05:49:37;;;;;;;22.42;13.05;;;-2.30;99.90;;;;;;5078507;28;20060;-58
2021/12/22 05:52:04;;;;;;;27.25;14.20;;;-2.30;99.90;;;;;;5079691;28;20036;-59
2021/12/22 05:54:29;;;;;;;24.63;13.25;;;-2.30;99.90;;;;;;5092363;28;20167;-58
2021/12/22 05:56:55;;;;;;;23.77;14.98;;;-2.30;99.90;;;;;;5075746;28;20072;-58
2021/12/22 05:59:21;;;;;;;21.80;13.10;;;-2.30;99.90;;;;;;5078486;28;20119;-58
2021/12/22 06:01:47;;;;;;;22.52;12.77;;;-2.30;99.90;;;;;;5077006;28;20591;-58
2021/12/22 06:04:13;;;;;;;24.55;13.65;;;-2.30;99.90;;;;;;5078498;28;20044;-58
2021/12/22 06:06:39;;;;;;;23.25;13.23;;;-2.30;99.90;;;;;;5076803;28;20147;-58
2021/12/22 06:09:06;;;;;;;22.20;13.10;;;-2.30;99.90;;;;;;5077835;28;20064;-61
2021/12/22 06:11:32;;;;;;;31.30;14.65;;;-2.40;99.90;;;;;;5076495;28;20518;-57
2021/12/22 06:13:58;;;;;;;22.67;12.88;;;-2.30;99.90;;;;;;5077385;28;20055;-57
2021/12/22 06:16:24;;;;;;;27.13;13.55;;;-2.30;99.90;;;;;;5076736;28;20094;-58
2021/12/22 06:18:56;;;;;;;23.50;13.05;;;-2.40;99.90;;;;;;5077756;28;20052;-59
2021/12/22 06:21:22;;;;;;;26.05;13.70;;;-2.40;99.90;;;;;;5078084;28;20056;-59
2021/12/22 06:23:48;;;;;;;26.13;13.18;;;-2.40;99.90;;;;;;5043614;28;20044;-59
2021/12/22 06:26:14;;;;;;;23.33;12.18;;;-2.40;99.90;;;;;;5077574;28;20047;-60
2021/12/22 06:28:40;;;;;;;23.65;12.65;;;-2.40;99.90;;;;;;5077833;28;20049;-59
2021/12/22 06:31:06;;;;;;;26.55;13.57;;;-2.40;99.90;;;;;;5077607;28;20052;-59
2021/12/22 06:33:32;;;;;;;27.35;13.35;;;-2.50;99.90;;;;;;5077805;28;20543;-60
2021/12/22 06:35:58;;;;;;;25.42;13.57;;;-2.40;99.90;;;;;;5076136;28;20049;-59
2021/12/22 06:38:24;;;;;;;25.85;13.45;;;-2.40;99.90;;;;;;5077602;28;20601;-60
2021/12/22 06:40:50;;;;;;;25.13;12.57;;;-2.40;99.90;;;;;;5077708;28;20100;-59
2021/12/22 06:43:16;;;;;;;25.95;12.98;;;-2.50;99.90;;;;;;5077048;28;20041;-59
2021/12/22 06:45:42;;;;;;;23.42;13.25;;;-2.60;99.90;;;;;;5077524;28;20097;-59
2021/12/22 06:48:08;;;;;;;24.75;12.65;;;-2.50;99.90;;;;;;5075724;28;20044;-59
2021/12/22 06:50:34;;;;;;;23.38;12.52;;;-2.60;99.90;;;;;;5084125;28;20040;-59
2021/12/22 06:53:00;;;;;;;26.98;15.02;;;-2.60;99.90;;;;;;5096223;28;20050;-59
2021/12/22 06:55:26;;;;;;;22.88;13.23;;;-2.60;99.90;;;;;;5083379;28;20100;-59
2021/12/22 06:57:53;;;;;;;23.75;13.82;;;-2.60;99.90;;;;;;5077530;28;20056;-59
2021/12/22 07:00:20;;;;;;;26.25;13.63;;;-2.60;99.90;;;;;;5077407;28;20044;-59
2021/12/22 07:02:46;;;;;;;23.90;12.80;;;-2.60;99.90;;;;;;5077333;28;20055;-59
2021/12/22 07:05:13;;;;;;;24.65;13.77;;;-2.60;99.90;;;;;;5077146;28;20044;-61
2021/12/22 07:07:39;;;;;;;22.30;13.65;;;-2.50;99.90;;;;;;5076241;28;20049;-59
2021/12/22 07:10:10;;;;;;;23.63;13.25;;;-2.60;99.90;;;;;;5073884;28;20106;-59
2021/12/22 07:12:41;;;;;;;23.63;12.55;;;-2.50;99.90;;;;;;5074245;28;20554;-59
2021/12/22 07:15:10;;;;;;;25.50;13.13;;;-2.60;99.90;;;;;;5074027;28;20052;-59
2021/12/22 07:17:37;;;;;;;25.55;13.43;;;-2.60;99.90;;;;;;5073679;28;20052;-59
2021/12/22 07:20:05;;;;;;;25.63;13.15;;;-2.60;99.90;;;;;;5072194;28;20051;-59
2021/12/22 07:22:32;;;;;;;25.27;14.27;;;-2.60;99.90;;;;;;5071286;28;20040;-59
2021/12/22 07:24:58;;;;;;;27.88;14.88;;;-2.70;99.90;;;;;;5073623;28;20123;-58
2021/12/22 07:27:24;;;;;;;22.80;14.60;;;-2.60;99.90;;;;;;5073282;28;20137;-57
2021/12/22 07:29:49;;;;;;;23.02;12.25;;;-2.60;99.90;;;;;;5073840;28;20050;-58
2021/12/22 07:32:15;;;;;;;26.35;13.57;;;-2.60;99.90;;;;;;5073987;28;20051;-58
2021/12/22 07:34:52;;;;;;;23.92;13.20;;;-2.60;99.90;;;;;;5073748;28;20048;-58
2021/12/22 07:37:39;;;;;;;25.52;13.52;;;-2.60;99.90;;;;;;5082415;28;20085;-59
2021/12/22 07:40:07;;;;;;;25.67;13.10;;;-2.60;99.90;;;;;;5091709;28;20059;-59
2021/12/22 07:42:33;;;;;;;23.73;13.55;;;-2.60;99.90;;;;;;5093904;28;20040;-59
2021/12/22 07:44:59;;;;;;;25.30;12.73;;;-2.60;99.90;;;;;;5093597;28;20078;-59
2021/12/22 07:47:24;;;;;;;24.40;13.25;;;-2.60;99.90;;;;;;5093967;28;20476;-58
2021/12/22 07:49:50;;;;;;;26.15;13.57;;;-2.50;99.90;;;;;;5092956;28;20079;-59
2021/12/22 07:52:16;;;;;;;24.67;13.32;;;-2.60;99.90;;;;;;5073861;28;20048;-59
2021/12/22 07:54:42;;;;;;;26.55;13.23;;;-2.60;99.90;;;;;;5073517;28;20049;-59
2021/12/22 07:57:08;;;;;;;22.73;13.30;;;-2.50;99.90;;;;;;5073638;28;20066;-59
2021/12/22 07:59:34;;;;;;;22.30;13.00;;;-2.60;99.90;;;;;;5074218;28;20071;-58
2021/12/22 08:02:00;;;;;;;26.63;13.48;;;-2.50;99.90;;;;;;5074013;28;20041;-58
2021/12/22 08:04:25;;;;;;;24.33;13.02;;;-2.50;99.90;;;;;;5073885;28;20045;-59
2021/12/22 08:06:51;;;;;;;23.25;13.15;;;-2.40;99.90;;;;;;5073718;28;20052;-59
2021/12/22 08:09:17;;;;;;;22.00;12.30;;;-2.40;99.90;;;;;;5072769;28;20117;-59
2021/12/22 08:11:43;;;;;;;27.17;12.88;;;-2.50;99.90;;;;;;5073615;28;20154;-59
2021/12/22 08:14:09;;;;;;;24.17;12.82;;;-2.40;99.90;;;;;;5073206;28;20493;-59
2021/12/22 08:16:35;;;;;;;39.47;15.82;;;-2.40;99.90;;;;;;5073498;28;20045;-59
2021/12/22 08:19:00;;;;;;;51.85;17.33;;;-2.30;99.90;;;;;;5073936;28;20043;-59
2021/12/22 08:21:26;;;;;;;31.75;14.55;;;-2.30;99.90;;;;;;5077055;28;20454;-60
2021/12/22 08:23:52;;;;;;;29.83;12.65;;;-2.20;99.90;;;;;;5076518;28;20096;-59
2021/12/22 08:26:18;;;;;;;26.63;12.25;;;-2.30;99.90;;;;;;5077316;28;20052;-59
2021/12/22 08:28:48;;;;;;;35.10;13.60;;;-2.20;99.90;;;;;;5077226;28;20036;-59
2021/12/22 08:31:15;;;;;;;42.92;15.93;;;-2.20;99.90;;;;;;5075573;28;20044;-59
2021/12/22 08:33:45;;;;;;;36.40;14.38;;;-2.20;99.90;;;;;;5059362;28;20056;-60
2021/12/22 08:38:57;;;;;;;24.67;12.40;;;-2.10;99.90;;;;;;5077336;28;20052;-61
2021/12/22 08:41:36;;;;;;;24.65;12.73;;;-2.10;99.90;;;;;;5077023;28;20073;-60
2021/12/22 08:44:06;;;;;;;25.35;12.57;;;-2.10;99.90;;;;;;5076773;28;20052;-59
2021/12/22 08:46:32;;;;;;;23.67;12.10;;;-2.00;99.90;;;;;;5076721;28;20064;-59
2021/12/22 08:48:59;;;;;;;25.17;11.55;;;-2.00;99.90;;;;;;5077082;28;20509;-59
2021/12/22 08:51:25;;;;;;;22.77;11.63;;;-2.00;99.90;;;;;;5091091;28;20431;-60
2021/12/22 08:53:53;;;;;;;39.50;14.63;;;-2.10;99.90;;;;;;5094890;28;20078;-59
2021/12/22 08:56:19;;;;;;;31.42;14.25;;;-2.10;99.90;;;;;;5075334;28;20062;-59
2021/12/22 08:58:45;;;;;;;26.10;11.85;;;-2.00;99.90;;;;;;5076459;28;20277;-60
2021/12/22 09:01:11;;;;;;;24.63;12.30;;;-2.00;99.90;;;;;;5075499;28;20061;-59
2021/12/22 09:03:37;;;;;;;24.58;12.48;;;-1.90;99.90;;;;;;5075461;28;20048;-58
2021/12/22 09:06:03;;;;;;;26.05;12.90;;;-1.90;99.90;;;;;;5075239;28;20076;-59
2021/12/22 09:08:29;;;;;;;23.27;12.15;;;-2.00;99.90;;;;;;5076973;28;20056;-59
2021/12/22 09:10:55;;;;;;;28.40;12.85;;;-1.90;99.90;;;;;;5076161;28;20048;-59
2021/12/22 09:13:22;;;;;;;23.77;13.15;;;-1.90;99.90;;;;;;5077186;28;20068;-58
2021/12/22 09:15:48;;;;;;;24.17;12.75;;;-1.80;99.90;;;;;;5078181;28;20095;-58
2021/12/22 09:18:14;;;;;;;21.85;12.15;;;-1.70;99.90;;;;;;5068181;28;20059;-59
2021/12/22 09:20:41;;;;;;;23.05;12.68;;;-1.70;99.90;;;;;;5096287;28;20103;-59
2021/12/22 09:23:07;;;;;;;26.40;12.63;;;-1.70;99.90;;;;;;5096781;28;20082;-59
2021/12/22 09:25:33;;;;;;;26.58;13.02;;;-1.70;99.90;;;;;;5095250;28;20044;-58
2021/12/22 09:28:00;;;;;;;28.40;13.63;;;-1.60;99.90;;;;;;5095309;28;20074;-59
2021/12/22 09:30:29;;;;;;;24.80;13.68;;;-1.60;99.90;;;;;;5077887;28;20101;-59
2021/12/22 09:32:55;;;;;;;25.40;13.73;;;-1.50;99.90;;;;;;5094437;28;20055;-57
2021/12/22 09:35:21;;;;;;;25.92;13.60;;;-1.40;99.90;;;;;;5096442;28;20101;-59
2021/12/22 09:37:47;;;;;;;26.35;13.60;;;-1.40;99.90;;;;;;5096328;28;20055;-58
2021/12/22 09:40:13;;;;;;;25.63;14.35;;;-1.30;99.90;;;;;;5096179;28;20048;-59
2021/12/22 09:42:39;;;;;;;24.55;12.07;;;-1.30;99.90;;;;;;5096245;28;20095;-59
2021/12/22 09:45:05;;;;;;;25.42;13.25;;;-1.30;99.90;;;;;;5095855;28;20070;-57
2021/12/22 09:47:41;;;;;;;27.20;12.68;;;-1.30;99.90;;;;;;5094719;28;20090;-58
2021/12/22 09:50:10;;;;;;;22.45;13.07;;;-1.30;99.90;;;;;;5067930;28;20044;-59
2021/12/22 09:52:37;;;;;;;23.25;13.48;;;-1.30;99.90;;;;;;5095514;28;20103;-59
2021/12/22 09:55:05;;;;;;;27.05;14.60;;;-1.30;99.90;;;;;;5080573;28;20562;-59
2021/12/22 09:57:31;;;;;;;27.15;13.45;;;-1.30;99.90;;;;;;5076168;28;20056;-58
2021/12/22 09:59:59;;;;;;;23.80;13.57;;;-1.20;99.90;;;;;;5074491;28;20051;-59
2021/12/22 10:02:29;;;;;;;24.70;12.70;;;-1.20;99.90;;;;;;5075811;28;20614;-58
2021/12/22 10:04:57;;;;;;;23.58;12.90;;;-1.20;99.90;;;;;;5079110;28;20499;-59
2021/12/22 10:07:28;;;;;;;34.50;14.43;;;-1.10;99.90;;;;;;5090366;28;20047;-59
2021/12/22 10:10:04;;;;;;;28.35;13.10;;;-1.00;99.90;;;;;;5083414;28;20056;-59
2021/12/22 10:12:30;;;;;;;25.52;12.70;;;-1.10;99.90;;;;;;5080856;28;20115;-58
2021/12/22 10:15:01;;;;;;;38.28;15.55;;;-1.00;99.90;;;;;;5075318;28;20080;-59
2021/12/22 10:17:38;;;;;;;29.45;13.25;;;-1.00;99.90;;;;;;5057189;28;20051;-60
2021/12/22 10:20:08;;;;;;;25.00;12.63;;;-0.90;99.90;;;;;;5075260;28;20055;-60
2021/12/22 10:22:43;;;;;;;23.95;12.98;;;-0.90;99.90;;;;;;5074609;28;20044;-59
2021/12/22 10:25:11;;;;;;;26.15;14.70;;;-0.80;99.90;;;;;;5075089;28;20056;-60
2021/12/22 10:27:39;;;;;;;30.13;13.65;;;-0.80;99.90;;;;;;5074999;28;20057;-59
2021/12/22 10:30:22;;;;;;;29.63;14.50;;;-0.80;99.90;;;;;;5057173;28;20048;-60
2021/12/22 10:32:48;;;;;;;24.85;12.23;;;-0.70;99.90;;;;;;5074568;28;20053;-59
2021/12/22 10:35:14;;;;;;;23.75;12.80;;;-0.70;99.90;;;;;;5073388;28;20407;-59
2021/12/22 10:37:42;;;;;;;26.58;12.63;;;-0.70;99.90;;;;;;5074769;28;20079;-59
2021/12/22 10:40:44;;;;;;;22.67;12.52;;;-0.60;99.90;;;;;;5073354;28;20463;-59
2021/12/22 10:43:21;;;;;;;25.23;12.07;;;-0.60;99.90;;;;;;5024161;28;20082;-60
2021/12/22 10:45:53;;;;;;;24.95;12.68;;;-0.50;99.90;;;;;;5085086;28;20032;-59
2021/12/22 10:51:08;;;;;;;24.35;12.25;;;-0.50;99.90;;;;;;5083438;28;20059;-58
2021/12/22 10:53:45;;;;;;;27.52;11.35;;;-0.50;99.90;;;;;;5082602;28;20541;-59
2021/12/22 10:56:22;;;;;;;24.30;13.52;;;-0.50;99.90;;;;;;5054229;28;20049;-61
2021/12/22 10:59:06;;;;;;;22.05;12.15;;;-0.50;99.90;;;;;;5053661;28;20091;-59
2021/12/22 11:01:54;;;;;;;29.02;13.43;;;-0.50;99.90;;;;;;5056791;28;20044;-59
2021/12/22 11:04:27;;;;;;;25.40;10.65;;;-0.50;99.90;;;;;;5057546;28;20128;-60
2021/12/22 11:07:07;;;;;;;23.00;12.20;;;-0.50;99.90;;;;;;5057211;28;20087;-59
2021/12/22 11:09:37;;;;;;;29.50;12.75;;;-0.40;99.90;;;;;;5056958;28;20052;-59
2021/12/22 11:12:05;;;;;;;30.15;14.18;;;-0.50;99.90;;;;;;5056639;28;20813;-58
2021/12/22 11:14:38;;;;;;;25.13;14.25;;;-0.40;99.90;;;;;;5056404;28;20049;-58
2021/12/22 11:17:18;;;;;;;23.27;12.13;;;-0.40;99.90;;;;;;5057022;28;20072;-59
2021/12/22 11:20:03;;;;;;;20.95;12.68;;;-0.40;99.90;;;;;;5057438;28;20100;-59
2021/12/22 11:22:41;;;;;;;24.75;13.05;;;-0.40;99.90;;;;;;5056902;28;20084;-58
2021/12/22 11:25:11;;;;;;;22.42;12.40;;;-0.40;99.90;;;;;;5055833;28;20869;-59
2021/12/22 11:27:38;;;;;;;22.73;11.95;;;-0.30;99.90;;;;;;5057253;28;20053;-58
2021/12/22 11:30:10;;;;;;;22.50;11.52;;;-0.30;99.90;;;;;;5055968;28;20064;-59
2021/12/22 11:32:37;;;;;;;22.08;12.55;;;-0.30;99.90;;;;;;5055600;28;20501;-59
2021/12/22 11:35:08;;;;;;;23.02;12.38;;;-0.20;99.90;;;;;;5057110;28;20623;-59
2021/12/22 11:37:34;;;;;;;23.55;12.25;;;-0.10;99.90;;;;;;5056907;28;20063;-59
2021/12/22 11:40:01;;;;;;;21.85;12.85;;;-0.10;99.90;;;;;;5057035;28;20049;-59
2021/12/22 11:42:37;;;;;;;25.55;12.65;;;-0.10;99.90;;;;;;5057059;28;20061;-59
2021/12/22 11:45:21;;;;;;;20.40;11.52;;;-0.20;99.90;;;;;;5040401;28;20426;-59
2021/12/22 11:47:50;;;;;;;21.48;12.30;;;-0.20;99.90;;;;;;5055473;28;20045;-60
2021/12/22 11:50:26;;;;;;;20.63;11.30;;;-0.20;99.90;;;;;;5065275;28;20044;-59
2021/12/22 11:52:58;;;;;;;23.48;12.32;;;-0.20;99.90;;;;;;5097188;28;20173;-59
2021/12/22 11:55:44;;;;;;;22.80;14.20;;;-0.10;99.90;;;;;;5085789;28;20550;-59
2021/12/22 11:58:18;;;;;;;23.80;11.60;;;-0.10;99.90;;;;;;5080933;28;20079;-59
2021/12/22 12:01:09;;;;;;;22.02;12.18;;;-0.10;99.90;;;;;;5079389;28;20052;-59
2021/12/22 12:03:41;;;;;;;24.20;12.15;;;-0.20;99.90;;;;;;5081208;28;20470;-59
2021/12/22 12:06:06;;;;;;;25.13;12.63;;;-0.10;99.90;;;;;;5080751;28;20045;-60
2021/12/22 12:08:37;;;;;;;22.55;12.23;;;-0.10;99.90;;;;;;5079297;28;20109;-59
2021/12/22 12:11:06;;;;;;;19.90;11.90;;;-0.20;99.90;;;;;;5080299;28;20075;-59
2021/12/22 12:13:40;;;;;;;23.95;12.63;;;-0.20;99.90;;;;;;5060696;28;20044;-60
2021/12/22 12:22:17;;;;;;;25.23;11.65;;;-0.20;99.90;;;;;;5080455;28;20056;-59
2021/12/22 12:25:03;;;;;;;21.90;12.38;;;-0.20;99.90;;;;;;5080455;28;20084;-58
2021/12/22 12:27:43;;;;;;;23.65;11.57;;;-0.20;99.90;;;;;;5079035;28;20057;-59
2021/12/22 12:30:15;;;;;;;22.52;12.30;;;-0.10;99.90;;;;;;5080406;28;20110;-59
2021/12/22 12:32:40;;;;;;;20.50;11.70;;;-0.10;99.90;;;;;;5080358;28;20047;-58
2021/12/22 12:35:26;;;;;;;24.02;12.52;;;-0.10;99.90;;;;;;5080299;28;20102;-58
2021/12/22 12:38:16;;;;;;;19.75;12.40;;;-0.10;99.90;;;;;;5080037;28;20312;-59
2021/12/22 12:40:57;;;;;;;22.48;12.45;;;0.00;99.90;;;;;;5080235;28;20067;-57
2021/12/22 12:46:27;;;;;;;20.88;11.48;;;0.00;99.90;;;;;;5081251;28;20481;-58
2021/12/22 12:49:16;;;;;;;19.33;12.20;;;0.10;99.90;;;;;;5091942;28;20083;-59
2021/12/22 12:51:49;;;;;;;25.10;12.25;;;0.00;99.90;;;;;;5083385;28;20045;-58
2021/12/22 12:54:20;;;;;;;24.13;12.98;;;0.00;99.90;;;;;;5079684;28;20061;-59
2021/12/22 12:57:09;;;;;;;24.33;12.70;;;0.00;99.90;;;;;;5079551;28;20504;-58
2021/12/22 12:59:37;;;;;;;22.00;11.93;;;0.00;99.90;;;;;;5074294;28;20080;-58
2021/12/22 13:02:04;;;;;;;20.67;11.48;;;0.00;99.90;;;;;;5079850;28;20656;-58
2021/12/22 13:04:36;;;;;;;19.42;11.80;;;0.00;99.90;;;;;;5078138;28;20555;-58
2021/12/22 13:07:07;;;;;;;23.33;12.93;;;0.00;99.90;;;;;;5079016;28;20044;-59
2021/12/22 13:09:37;;;;;;;22.42;11.93;;;-0.10;99.90;;;;;;5079232;28;20527;-58
2021/12/22 13:12:31;;;;;;;23.65;12.10;;;0.00;99.90;;;;;;5078440;28;20534;-58
2021/12/22 13:18:00;;;;;;;21.90;12.30;;;0.00;99.90;;;;;;5077699;28;20056;-58
2021/12/22 13:20:30;;;;;;;22.38;12.07;;;-0.20;99.90;;;;;;5079425;28;20872;-58